createdAt,value
2018-06-11T00:00:32.905Z,2.73
2018-06-11T00:02:59.750Z,5.13
2018-06-11T00:05:26.547Z,2.70
2018-06-11T00:07:53.273Z,7.10
2018-06-11T00:10:20.073Z,3.67
2018-06-11T00:12:50.359Z,4.77
2018-06-11T00:15:16.985Z,3.10
2018-06-11T00:17:43.741Z,4.90
2018-06-11T00:20:10.273Z,2.63
2018-06-11T00:22:38.128Z,2.60
2018-06-11T00:25:04.804Z,2.63
2018-06-11T00:27:31.579Z,5.13
2018-06-11T00:29:58.293Z,4.33
2018-06-11T00:32:25.954Z,2.80
2018-06-11T00:34:52.848Z,4.27
2018-06-11T00:37:19.448Z,3.10
2018-06-11T00:39:46.151Z,4.03
2018-06-11T00:42:15.946Z,2.60
2018-06-11T00:44:42.731Z,5.43
2018-06-11T00:47:09.502Z,2.77
2018-06-11T00:49:36.142Z,2.70
2018-06-11T00:52:10.699Z,2.67
2018-06-11T00:54:37.393Z,3.33
2018-06-11T00:57:04.096Z,3.80
2018-06-11T00:59:30.676Z,4.67
2018-06-11T01:01:57.472Z,4.87
2018-06-11T01:04:24.096Z,4.37
2018-06-11T01:06:50.782Z,6.80
2018-06-11T01:09:17.465Z,2.63
2018-06-11T01:11:48.005Z,2.80
2018-06-11T01:14:14.672Z,2.60
2018-06-11T01:16:41.378Z,3.43
2018-06-11T01:19:08.093Z,5.60
2018-06-11T01:21:34.890Z,2.50
2018-06-11T01:24:02.501Z,7.47
2018-06-11T01:26:29.189Z,10.00
2018-06-11T01:28:55.821Z,6.12
2018-06-11T01:31:22.399Z,4.53
2018-06-11T01:33:49.373Z,3.07
2018-06-11T01:36:16.083Z,2.40
2018-06-11T01:38:42.849Z,4.07
2018-06-11T01:41:09.639Z,3.67
2018-06-11T01:43:39.727Z,2.77
2018-06-11T01:46:06.500Z,3.07
2018-06-11T01:48:33.305Z,3.33
2018-06-11T01:51:00.082Z,3.00
2018-06-11T01:53:34.615Z,6.07
2018-06-11T01:56:01.377Z,5.53
2018-06-11T01:58:28.214Z,5.57
2018-06-11T02:00:54.987Z,2.93
2018-06-11T02:03:22.911Z,2.60
2018-06-11T02:05:49.696Z,3.67
2018-06-11T02:08:16.415Z,8.13
2018-06-11T02:10:43.130Z,3.27
2018-06-11T02:13:13.507Z,5.93
2018-06-11T02:15:40.155Z,4.50
2018-06-11T02:18:06.936Z,3.40
2018-06-11T02:20:33.588Z,4.60
2018-06-11T02:23:06.121Z,6.03
2018-06-11T02:25:32.722Z,5.17
2018-06-11T02:27:59.313Z,5.03
2018-06-11T02:30:26.231Z,4.40
2018-06-11T02:32:52.974Z,4.33
2018-06-11T02:35:19.642Z,2.43
2018-06-11T02:37:46.371Z,3.37
2018-06-11T02:40:13.057Z,3.13
2018-06-11T02:42:42.992Z,4.03
2018-06-11T02:45:09.806Z,3.80
2018-06-11T02:47:36.437Z,9.37
2018-06-11T02:50:03.108Z,3.80
2018-06-11T02:52:37.363Z,7.77
2018-06-11T02:55:04.130Z,9.70
2018-06-11T02:57:30.666Z,6.00
2018-06-11T02:59:57.531Z,4.80
2018-06-11T03:02:24.145Z,8.17
2018-06-11T03:04:50.823Z,7.00
2018-06-11T03:07:17.669Z,6.83
2018-06-11T03:09:44.365Z,4.03
2018-06-11T03:12:11.081Z,5.73
2018-06-11T03:14:37.720Z,12.17
2018-06-11T03:17:04.324Z,9.03
2018-06-11T03:19:34.918Z,4.83
2018-06-11T03:22:06.332Z,8.47
2018-06-11T03:24:32.818Z,5.03
2018-06-11T03:26:59.487Z,7.80
2018-06-11T03:29:26.430Z,7.77
2018-06-11T03:31:56.346Z,7.53
2018-06-11T03:34:23.086Z,5.40
2018-06-11T03:36:49.785Z,6.43
2018-06-11T03:39:16.454Z,6.67
2018-06-11T03:41:43.169Z,8.30
2018-06-11T03:44:09.902Z,4.47
2018-06-11T03:46:36.747Z,4.17
2018-06-11T03:49:03.434Z,6.17
2018-06-11T03:51:30.283Z,5.40
2018-06-11T03:53:57.001Z,14.20
2018-06-11T03:56:23.754Z,8.90
2018-06-11T03:58:50.478Z,10.97
2018-06-11T04:01:20.917Z,7.50
2018-06-11T04:03:47.653Z,7.63
2018-06-11T04:06:14.342Z,12.37
2018-06-11T04:08:41.020Z,7.87
2018-06-11T04:11:08.793Z,9.77
2018-06-11T04:13:35.331Z,12.73
2018-06-11T04:16:02.069Z,6.73
2018-06-11T04:18:28.737Z,6.60
2018-06-11T04:20:55.401Z,11.43
2018-06-11T04:23:21.992Z,39.80
2018-06-11T04:25:48.573Z,15.97
2018-06-11T04:28:18.761Z,15.83
2018-06-11T04:30:45.506Z,7.63
2018-06-11T04:33:12.248Z,10.20
2018-06-11T04:35:39.165Z,7.13
2018-06-11T04:38:05.751Z,11.07
2018-06-11T04:40:32.408Z,10.50
2018-06-11T04:42:59.034Z,10.47
2018-06-11T04:45:25.678Z,13.03
2018-06-11T04:47:52.393Z,14.13
2018-06-11T04:50:20.314Z,15.30
2018-06-11T04:52:47.034Z,12.73
2018-06-11T04:55:13.538Z,10.53
2018-06-11T04:57:40.270Z,9.53
2018-06-11T05:00:07.783Z,12.47
2018-06-11T05:02:34.466Z,17.67
2018-06-11T05:05:01.341Z,10.37
2018-06-11T05:07:28.018Z,14.13
2018-06-11T05:09:54.919Z,13.50
2018-06-11T05:12:25.313Z,8.60
2018-06-11T05:14:52.064Z,18.37
2018-06-11T05:17:18.894Z,10.07
2018-06-11T05:19:50.272Z,10.67
2018-06-11T05:22:17.036Z,10.63
2018-06-11T05:24:43.779Z,9.23
2018-06-11T05:27:10.339Z,13.10
2018-06-11T05:29:37.057Z,14.00
2018-06-11T05:32:03.784Z,17.77
2018-06-11T05:34:30.601Z,13.83
2018-06-11T05:36:57.239Z,12.90
2018-06-11T05:39:31.525Z,11.37
2018-06-11T05:41:58.327Z,9.83
2018-06-11T05:44:24.980Z,11.00
2018-06-11T05:46:51.746Z,9.37
2018-06-11T05:49:21.614Z,13.27
2018-06-11T05:51:48.237Z,11.83
2018-06-11T05:54:14.843Z,10.23
2018-06-11T05:56:41.627Z,14.10
2018-06-11T05:59:14.320Z,15.60
2018-06-11T06:01:40.990Z,22.03
2018-06-11T06:04:07.605Z,20.77
2018-06-11T06:06:34.186Z,23.60
2018-06-11T06:09:04.325Z,25.60
2018-06-11T06:11:30.884Z,26.53
2018-06-11T06:13:57.583Z,24.87
2018-06-11T06:16:24.418Z,25.67
2018-06-11T06:18:51.154Z,24.13
2018-06-11T06:21:17.939Z,19.80
2018-06-11T19:15:51.981Z,7.82
2018-06-11T19:18:23.210Z,7.00
2018-06-11T19:20:53.644Z,8.97
2018-06-11T19:23:23.731Z,10.20
2018-06-11T19:25:54.084Z,8.90
2018-06-11T19:28:24.422Z,9.33
2018-06-11T19:30:54.865Z,7.90
2018-06-11T19:33:25.367Z,9.97
2018-06-11T19:35:55.643Z,8.53
2018-06-11T19:38:25.875Z,15.50
2018-06-11T19:40:56.087Z,5.20
2018-06-11T19:43:28.999Z,8.67
2018-06-11T19:46:00.833Z,8.70
2018-06-11T19:48:35.675Z,6.33
2018-06-11T19:51:06.076Z,11.27
2018-06-11T19:53:36.235Z,10.47
2018-06-11T19:56:06.668Z,7.70
2018-06-11T19:58:39.020Z,11.43
2018-06-11T20:01:09.461Z,8.83
2018-06-11T20:03:39.812Z,7.40
2018-06-11T20:06:10.123Z,8.73
2018-06-11T20:08:44.974Z,6.47
2018-06-11T20:11:15.393Z,6.97
2018-06-11T20:13:45.823Z,7.77
2018-06-11T20:16:16.334Z,8.07
2018-06-11T20:18:47.345Z,12.00
2018-06-11T20:21:17.749Z,8.77
2018-06-11T20:23:47.675Z,6.57
2018-06-11T20:26:18.070Z,6.40
2018-06-11T20:28:49.386Z,9.93
2018-06-11T20:31:19.793Z,5.67
2018-06-11T20:33:50.211Z,9.20
2018-06-11T20:36:20.689Z,11.00
2018-06-11T20:38:54.245Z,12.83
2018-06-11T20:41:24.666Z,10.83
2018-06-11T20:43:55.930Z,7.07
2018-06-11T20:46:26.288Z,7.57
2018-06-11T20:48:56.833Z,9.30
2018-06-11T20:51:27.244Z,9.70
2018-06-11T20:53:57.523Z,7.53
2018-06-11T20:56:28.054Z,8.30
2018-06-11T20:58:58.230Z,8.17
2018-06-11T21:01:28.606Z,8.23
2018-06-11T21:03:59.002Z,7.53
2018-06-11T21:06:29.393Z,8.70
2018-06-11T21:08:59.801Z,8.97
2018-06-11T21:11:30.301Z,8.13
2018-06-11T21:14:00.636Z,6.03
2018-06-11T21:18:50.364Z,9.37
2018-06-11T21:21:20.776Z,8.47
2018-06-11T21:23:51.125Z,7.80
2018-06-11T21:26:21.462Z,8.53
2018-06-11T21:28:52.882Z,8.23
2018-06-11T21:31:24.358Z,7.20
2018-06-11T21:33:54.756Z,9.00
2018-06-11T21:36:25.072Z,7.33
2018-06-11T21:38:56.342Z,7.97
2018-06-11T21:41:26.733Z,7.00
2018-06-11T21:43:56.975Z,7.13
2018-06-11T21:46:27.243Z,5.70
2018-06-11T21:48:57.769Z,6.53
2018-06-11T21:51:28.214Z,6.73
2018-06-11T21:54:01.490Z,5.70
2018-06-11T21:56:31.720Z,5.80
2018-06-11T21:59:03.231Z,7.43
2018-06-11T22:01:33.778Z,6.57
2018-06-11T22:04:04.363Z,8.93
2018-06-11T22:06:34.286Z,6.63
2018-06-11T22:09:04.677Z,5.70
2018-06-11T22:11:34.847Z,5.17
2018-06-11T22:14:04.958Z,5.20
2018-06-11T22:16:35.362Z,5.03
2018-06-11T22:19:05.646Z,4.77
2018-06-11T22:21:35.928Z,4.97
2018-06-11T22:24:07.205Z,5.20
2018-06-11T22:26:37.372Z,5.13
2018-06-11T22:29:07.803Z,6.07
2018-06-11T22:31:38.186Z,6.13
2018-06-11T22:34:08.437Z,6.27
2018-06-11T22:36:38.862Z,5.03
2018-06-11T22:39:09.410Z,7.73
2018-06-11T22:41:39.809Z,5.30
2018-06-11T22:44:10.038Z,5.40
2018-06-11T22:46:40.310Z,5.30
2018-06-11T22:49:10.736Z,5.33
2018-06-11T22:51:41.150Z,6.10
2018-06-11T22:54:11.561Z,5.13
2018-06-11T22:56:41.674Z,5.53
2018-06-11T22:59:15.590Z,5.07
2018-06-11T23:01:46.005Z,6.70
2018-06-11T23:04:16.372Z,6.67
2018-06-11T23:06:46.776Z,6.97
2018-06-11T23:09:16.981Z,5.63
2018-06-11T23:11:47.377Z,6.00
2018-06-11T23:14:17.710Z,6.87
2018-06-11T23:16:47.823Z,6.00
2018-06-11T23:19:18.163Z,5.60
2018-06-11T23:21:48.521Z,4.97
2018-06-11T23:24:18.525Z,6.47
2018-06-11T23:26:48.930Z,6.03
2018-06-11T23:29:20.135Z,5.33
2018-06-11T23:31:50.458Z,5.77
2018-06-11T23:34:20.842Z,4.83
2018-06-11T23:36:51.153Z,5.77
2018-06-11T23:39:22.404Z,5.03
2018-06-11T23:41:52.713Z,6.93
2018-06-11T23:44:23.039Z,5.10
2018-06-11T23:46:53.453Z,5.37
2018-06-11T23:49:27.045Z,5.10
2018-06-11T23:51:57.558Z,5.17
2018-06-11T23:54:27.898Z,6.40
2018-06-11T23:56:58.297Z,5.03
2018-06-11T23:59:29.504Z,5.20
